sensor_id;sensor_type;location;lat;lon;timestamp;noise_LAeq;noise_LA_min;noise_LA_max;noise_LA01;noise_LA95
11999;Laerm;40817;51.520;9.954;2023-05-10T00:01:25;41.00;36.45;45.45;;
11999;Laerm;40817;51.520;9.954;2023-05-10T00:03:53;42.54;38.37;44.97;;
11999;Laerm;40817;51.520;9.954;2023-05-10T00:06:22;41.39;36.20;44.27;;
11999;Laerm;40817;51.520;9.954;2023-05-10T00:08:49;43.46;39.21;48.81;;
11999;Laerm;40817;51.520;9.954;2023-05-10T00:11:17;42.50;37.12;51.99;;
11999;Laerm;40817;51.520;9.954;2023-05-10T00:13:44;41.35;37.32;48.58;;
11999;Laerm;40817;51.520;9.954;2023-05-10T00:16:12;42.41;37.32;46.13;;
11999;Laerm;40817;51.520;9.954;2023-05-10T00:18:40;40.78;35.31;43.81;;
11999;Laerm;40817;51.520;9.954;2023-05-10T00:21:07;41.64;37.12;45.07;;
11999;Laerm;40817;51.520;9.954;2023-05-10T00:23:36;41.80;36.69;45.36;;
11999;Laerm;40817;51.520;9.954;2023-05-10T00:26:04;41.14;36.91;44.43;;
11999;Laerm;40817;51.520;9.954;2023-05-10T00:28:31;40.19;33.90;42.98;;
11999;Laerm;40817;51.520;9.954;2023-05-10T00:30:59;40.26;34.31;44.83;;
11999;Laerm;40817;51.520;9.954;2023-05-10T00:33:27;40.87;37.12;43.68;;
11999;Laerm;40817;51.520;9.954;2023-05-10T00:35:54;42.01;37.32;45.45;;
11999;Laerm;40817;51.520;9.954;2023-05-10T00:38:22;43.44;37.12;47.93;;
11999;Laerm;40817;51.520;9.954;2023-05-10T00:40:51;42.25;36.45;49.72;;
11999;Laerm;40817;51.520;9.954;2023-05-10T00:43:18;40.83;36.20;44.65;;
11999;Laerm;40817;51.520;9.954;2023-05-10T00:45:46;40.79;36.20;43.29;;
11999;Laerm;40817;51.520;9.954;2023-05-10T00:48:14;41.33;37.12;44.03;;
11999;Laerm;40817;51.520;9.954;2023-05-10T00:50:41;41.88;37.70;44.27;;
11999;Laerm;40817;51.520;9.954;2023-05-10T00:53:09;42.97;37.88;52.26;;
11999;Laerm;40817;51.520;9.954;2023-05-10T00:55:37;43.03;38.81;57.60;;
11999;Laerm;40817;51.520;9.954;2023-05-10T00:58:06;41.64;36.91;44.31;;
11999;Laerm;40817;51.520;9.954;2023-05-10T01:00:34;41.83;36.98;44.90;;
11999;Laerm;40817;51.520;9.954;2023-05-10T01:03:03;42.38;37.12;47.24;;
11999;Laerm;40817;51.520;9.954;2023-05-10T01:05:31;43.28;37.70;48.28;;
11999;Laerm;40817;51.520;9.954;2023-05-10T01:07:58;42.50;38.21;45.36;;
11999;Laerm;40817;51.520;9.954;2023-05-10T01:10:26;41.43;37.52;44.11;;
11999;Laerm;40817;51.520;9.954;2023-05-10T01:12:54;42.23;35.94;61.95;;
11999;Laerm;40817;51.520;9.954;2023-05-10T01:15:23;41.25;36.69;44.27;;
11999;Laerm;40817;51.520;9.954;2023-05-10T01:17:51;41.55;36.45;44.58;;
11999;Laerm;40817;51.520;9.954;2023-05-10T01:20:19;42.36;35.94;45.91;;
11999;Laerm;40817;51.520;9.954;2023-05-10T01:23:31;41.03;36.20;44.27;;
11999;Laerm;40817;51.520;9.954;2023-05-10T01:27:01;42.13;37.52;44.90;;
11999;Laerm;40817;51.520;9.954;2023-05-10T01:30:52;42.65;37.70;45.54;;
11999;Laerm;40817;51.520;9.954;2023-05-10T01:33:33;42.74;38.67;47.86;;
11999;Laerm;40817;51.520;9.954;2023-05-10T01:36:08;43.48;38.67;52.29;;
11999;Laerm;40817;51.520;9.954;2023-05-10T01:38:44;42.38;37.52;45.20;;
11999;Laerm;40817;51.520;9.954;2023-05-10T01:41:22;43.40;38.21;48.92;;
11999;Laerm;40817;51.520;9.954;2023-05-10T01:44:00;43.21;38.81;45.75;;
11999;Laerm;40817;51.520;9.954;2023-05-10T01:46:35;42.50;38.05;44.83;;
11999;Laerm;40817;51.520;9.954;2023-05-10T01:49:10;42.13;36.91;45.27;;
11999;Laerm;40817;51.520;9.954;2023-05-10T01:51:45;48.62;39.70;66.02;;
11999;Laerm;40817;51.520;9.954;2023-05-10T01:54:15;42.92;38.67;45.54;;
11999;Laerm;40817;51.520;9.954;2023-05-10T01:56:45;43.03;38.74;52.24;;
11999;Laerm;40817;51.520;9.954;2023-05-10T01:59:18;44.14;40.63;48.90;;
11999;Laerm;40817;51.520;9.954;2023-05-10T02:01:47;42.75;37.88;49.79;;
11999;Laerm;40817;51.520;9.954;2023-05-10T02:04:18;43.67;39.34;46.84;;
11999;Laerm;40817;51.520;9.954;2023-05-10T02:06:47;43.28;39.34;46.02;;
11999;Laerm;40817;51.520;9.954;2023-05-10T02:09:16;43.03;39.08;45.11;;
11999;Laerm;40817;51.520;9.954;2023-05-10T02:11:45;42.23;38.37;45.14;;
11999;Laerm;40817;51.520;9.954;2023-05-10T02:14:16;42.30;38.60;44.87;;
11999;Laerm;40817;51.520;9.954;2023-05-10T02:16:46;42.74;39.08;45.23;;
11999;Laerm;40817;51.520;9.954;2023-05-10T02:19:17;41.84;37.12;44.31;;
11999;Laerm;40817;51.520;9.954;2023-05-10T02:21:46;41.87;38.05;44.87;;
11999;Laerm;40817;51.520;9.954;2023-05-10T02:24:15;41.69;37.32;49.39;;
11999;Laerm;40817;51.520;9.954;2023-05-10T02:26:44;43.61;38.52;55.16;;
11999;Laerm;40817;51.520;9.954;2023-05-10T02:29:13;45.38;40.98;55.81;;
11999;Laerm;40817;51.520;9.954;2023-05-10T02:31:42;43.32;38.81;48.37;;
11999;Laerm;40817;51.520;9.954;2023-05-10T02:34:10;42.66;39.21;53.40;;
11999;Laerm;40817;51.520;9.954;2023-05-10T02:36:40;41.96;37.70;50.94;;
11999;Laerm;40817;51.520;9.954;2023-05-10T02:39:09;45.15;39.58;58.29;;
11999;Laerm;40817;51.520;9.954;2023-05-10T02:41:41;46.03;40.98;58.76;;
11999;Laerm;40817;51.520;9.954;2023-05-10T02:44:09;44.91;38.67;58.64;;
11999;Laerm;40817;51.520;9.954;2023-05-10T02:46:38;45.14;37.32;62.09;;
11999;Laerm;40817;51.520;9.954;2023-05-10T02:49:20;44.96;40.03;56.46;;
11999;Laerm;40817;51.520;9.954;2023-05-10T02:51:55;42.40;38.95;52.89;;
11999;Laerm;40817;51.520;9.954;2023-05-10T02:54:30;42.74;38.67;48.92;;
11999;Laerm;40817;51.520;9.954;2023-05-10T02:57:02;43.18;40.13;55.09;;
11999;Laerm;40817;51.520;9.954;2023-05-10T02:59:31;42.73;40.03;53.75;;
11999;Laerm;40817;51.520;9.954;2023-05-10T03:01:59;42.60;38.21;53.53;;
11999;Laerm;40817;51.520;9.954;2023-05-10T03:04:46;42.20;38.21;54.41;;
11999;Laerm;40817;51.520;9.954;2023-05-10T03:07:36;45.05;38.95;61.83;;
11999;Laerm;40817;51.520;9.954;2023-05-10T03:10:15;42.70;38.67;52.68;;
11999;Laerm;40817;51.520;9.954;2023-05-10T03:13:05;43.10;39.99;50.64;;
11999;Laerm;40817;51.520;9.954;2023-05-10T03:15:45;44.48;39.70;62.26;;
11999;Laerm;40817;51.520;9.954;2023-05-10T03:18:21;43.44;39.81;50.86;;
11999;Laerm;40817;51.520;9.954;2023-05-10T03:20:53;43.18;40.62;49.19;;
11999;Laerm;40817;51.520;9.954;2023-05-10T03:23:30;44.34;39.70;57.02;;
11999;Laerm;40817;51.520;9.954;2023-05-10T03:26:02;43.39;40.53;50.67;;
11999;Laerm;40817;51.520;9.954;2023-05-10T03:28:30;43.45;40.13;47.46;;
11999;Laerm;40817;51.520;9.954;2023-05-10T03:31:00;43.61;40.03;48.55;;
11999;Laerm;40817;51.520;9.954;2023-05-10T03:33:27;43.19;39.70;46.43;;
11999;Laerm;40817;51.520;9.954;2023-05-10T03:35:56;44.21;40.80;48.23;;
11999;Laerm;40817;51.520;9.954;2023-05-10T03:38:25;43.09;39.99;51.44;;
11999;Laerm;40817;51.520;9.954;2023-05-10T03:40:52;43.42;40.71;53.73;;
11999;Laerm;40817;51.520;9.954;2023-05-10T03:43:20;42.89;40.43;49.21;;
11999;Laerm;40817;51.520;9.954;2023-05-10T03:45:47;43.23;40.33;48.78;;
11999;Laerm;40817;51.520;9.954;2023-05-10T03:48:15;43.05;39.92;56.18;;
11999;Laerm;40817;51.520;9.954;2023-05-10T03:50:42;44.35;40.62;60.32;;
11999;Laerm;40817;51.520;9.954;2023-05-10T03:53:10;46.54;42.09;63.71;;
11999;Laerm;40817;51.520;9.954;2023-05-10T03:55:39;45.57;41.75;62.90;;
11999;Laerm;40817;51.520;9.954;2023-05-10T03:58:10;44.38;41.96;56.90;;
11999;Laerm;40817;51.520;9.954;2023-05-10T04:00:38;46.25;42.16;71.82;;
11999;Laerm;40817;51.520;9.954;2023-05-10T04:03:10;44.17;41.06;67.81;;
11999;Laerm;40817;51.520;9.954;2023-05-10T04:05:37;43.91;40.80;63.67;;
11999;Laerm;40817;51.520;9.954;2023-05-10T04:08:06;45.11;40.43;69.42;;
11999;Laerm;40817;51.520;9.954;2023-05-10T04:10:34;45.93;41.61;67.31;;
11999;Laerm;40817;51.520;9.954;2023-05-10T04:13:02;46.87;41.53;68.80;;
11999;Laerm;40817;51.520;9.954;2023-05-10T04:15:30;43.91;40.13;62.36;;
11999;Laerm;40817;51.520;9.954;2023-05-10T04:17:57;47.55;41.68;65.99;;
11999;Laerm;40817;51.520;9.954;2023-05-10T04:20:25;44.12;40.53;63.76;;
11999;Laerm;40817;51.520;9.954;2023-05-10T04:22:52;44.20;40.53;67.35;;
11999;Laerm;40817;51.520;9.954;2023-05-10T04:25:20;44.96;41.06;65.24;;
11999;Laerm;40817;51.520;9.954;2023-05-10T04:27:48;48.03;42.09;71.83;;
11999;Laerm;40817;51.520;9.954;2023-05-10T04:30:18;51.90;41.68;75.13;;
11999;Laerm;40817;51.520;9.954;2023-05-10T04:32:46;54.64;41.53;76.65;;
11999;Laerm;40817;51.520;9.954;2023-05-10T04:35:15;56.73;41.38;77.98;;
11999;Laerm;40817;51.520;9.954;2023-05-10T04:37:47;54.99;40.89;78.12;;
11999;Laerm;40817;51.520;9.954;2023-05-10T04:40:16;57.87;42.29;77.14;;
11999;Laerm;40817;51.520;9.954;2023-05-10T04:42:44;56.65;43.49;78.88;;
11999;Laerm;40817;51.520;9.954;2023-05-10T04:45:12;58.70;43.33;78.69;;
11999;Laerm;40817;51.520;9.954;2023-05-10T04:47:42;61.87;43.58;79.73;;
11999;Laerm;40817;51.520;9.954;2023-05-10T04:50:09;63.35;53.05;80.56;;
11999;Laerm;40817;51.520;9.954;2023-05-10T04:52:37;58.01;45.72;74.98;;
11999;Laerm;40817;51.520;9.954;2023-05-10T04:55:06;51.39;42.93;72.74;;
11999;Laerm;40817;51.520;9.954;2023-05-10T04:57:35;47.13;42.09;69.74;;
11999;Laerm;40817;51.520;9.954;2023-05-10T05:00:05;47.30;41.38;72.44;;
11999;Laerm;40817;51.520;9.954;2023-05-10T05:02:33;46.39;42.29;65.88;;
11999;Laerm;40817;51.520;9.954;2023-05-10T05:05:02;44.85;41.30;62.48;;
11999;Laerm;40817;51.520;9.954;2023-05-10T05:07:29;45.29;41.68;71.67;;
11999;Laerm;40817;51.520;9.954;2023-05-10T05:09:57;45.37;41.38;70.80;;
11999;Laerm;40817;51.520;9.954;2023-05-10T05:12:25;45.31;41.89;62.74;;
11999;Laerm;40817;51.520;9.954;2023-05-10T05:14:52;47.14;41.46;65.49;;
11999;Laerm;40817;51.520;9.954;2023-05-10T05:17:20;45.89;41.89;59.15;;
11999;Laerm;40817;51.520;9.954;2023-05-10T05:19:47;44.94;41.53;61.54;;
11999;Laerm;40817;51.520;9.954;2023-05-10T05:22:16;44.55;41.61;59.76;;
11999;Laerm;40817;51.520;9.954;2023-05-10T05:24:45;45.39;42.35;59.56;;
11999;Laerm;40817;51.520;9.954;2023-05-10T05:27:13;52.91;41.68;74.56;;
11999;Laerm;40817;51.520;9.954;2023-05-10T05:29:40;52.09;41.06;76.40;;
11999;Laerm;40817;51.520;9.954;2023-05-10T05:32:08;49.10;42.41;63.14;;
11999;Laerm;40817;51.520;9.954;2023-05-10T05:34:36;58.53;40.80;77.39;;
11999;Laerm;40817;51.520;9.954;2023-05-10T05:37:04;45.41;41.22;66.19;;
11999;Laerm;40817;51.520;9.954;2023-05-10T05:39:33;45.30;41.38;69.00;;
11999;Laerm;40817;51.520;9.954;2023-05-10T05:42:03;44.87;41.38;59.42;;
11999;Laerm;40817;51.520;9.954;2023-05-10T05:44:31;44.57;41.61;61.68;;
11999;Laerm;40817;51.520;9.954;2023-05-10T05:46:59;44.44;41.75;61.80;;
11999;Laerm;40817;51.520;9.954;2023-05-10T05:49:26;45.65;41.53;64.88;;
11999;Laerm;40817;51.520;9.954;2023-05-10T05:51:54;45.18;40.98;60.93;;
11999;Laerm;40817;51.520;9.954;2023-05-10T05:54:21;44.39;41.14;61.18;;
11999;Laerm;40817;51.520;9.954;2023-05-10T05:56:50;44.95;41.89;61.27;;
11999;Laerm;40817;51.520;9.954;2023-05-10T05:59:18;45.00;41.75;60.70;;
11999;Laerm;40817;51.520;9.954;2023-05-10T06:01:45;44.70;41.38;61.12;;
11999;Laerm;40817;51.520;9.954;2023-05-10T06:04:13;47.26;41.53;62.56;;
11999;Laerm;40817;51.520;9.954;2023-05-10T06:06:41;45.40;41.89;65.24;;
11999;Laerm;40817;51.520;9.954;2023-05-10T06:09:08;45.99;42.03;68.65;;
11999;Laerm;40817;51.520;9.954;2023-05-10T06:11:37;45.67;42.16;67.02;;
11999;Laerm;40817;51.520;9.954;2023-05-10T06:14:06;46.12;41.46;70.78;;
11999;Laerm;40817;51.520;9.954;2023-05-10T06:16:34;46.07;41.82;68.39;;
11999;Laerm;40817;51.520;9.954;2023-05-10T06:19:02;46.79;41.96;72.58;;
11999;Laerm;40817;51.520;9.954;2023-05-10T06:21:30;45.52;41.38;63.71;;
11999;Laerm;40817;51.520;9.954;2023-05-10T06:23:58;48.29;42.09;70.58;;
11999;Laerm;40817;51.520;9.954;2023-05-10T06:26:25;45.11;41.30;63.37;;
11999;Laerm;40817;51.520;9.954;2023-05-10T06:28:53;44.27;40.33;62.55;;
11999;Laerm;40817;51.520;9.954;2023-05-10T06:31:22;44.76;41.06;68.16;;
11999;Laerm;40817;51.520;9.954;2023-05-10T06:33:49;45.60;41.14;74.59;;
11999;Laerm;40817;51.520;9.954;2023-05-10T06:36:17;44.74;41.30;61.21;;
11999;Laerm;40817;51.520;9.954;2023-05-10T06:38:44;44.91;41.46;66.81;;
11999;Laerm;40817;51.520;9.954;2023-05-10T06:41:12;45.90;41.06;69.77;;
11999;Laerm;40817;51.520;9.954;2023-05-10T06:43:40;54.36;41.61;67.39;;
11999;Laerm;40817;51.520;9.954;2023-05-10T06:46:09;47.81;41.82;68.30;;
11999;Laerm;40817;51.520;9.954;2023-05-10T06:48:38;45.25;41.53;70.55;;
11999;Laerm;40817;51.520;9.954;2023-05-10T06:51:05;44.29;40.53;61.61;;
11999;Laerm;40817;51.520;9.954;2023-05-10T06:53:33;46.81;40.89;71.47;;
11999;Laerm;40817;51.520;9.954;2023-05-10T06:56:01;45.02;40.71;68.62;;
11999;Laerm;40817;51.520;9.954;2023-05-10T06:58:29;45.88;40.23;70.61;;
11999;Laerm;40817;51.520;9.954;2023-05-10T07:01:02;45.94;40.13;70.76;;
11999;Laerm;40817;51.520;9.954;2023-05-10T07:03:30;46.50;41.06;69.64;;
11999;Laerm;40817;51.520;9.954;2023-05-10T07:06:03;47.25;41.14;70.15;;
11999;Laerm;40817;51.520;9.954;2023-05-10T07:08:33;47.54;41.46;68.35;;
11999;Laerm;40817;51.520;9.954;2023-05-10T07:11:03;45.60;41.22;63.77;;
11999;Laerm;40817;51.520;9.954;2023-05-10T07:13:31;48.06;41.82;71.62;;
11999;Laerm;40817;51.520;9.954;2023-05-10T07:16:00;48.86;42.41;68.88;;
11999;Laerm;40817;51.520;9.954;2023-05-10T07:18:28;49.10;41.82;72.34;;
11999;Laerm;40817;51.520;9.954;2023-05-10T07:20:57;50.12;41.30;71.80;;
11999;Laerm;40817;51.520;9.954;2023-05-10T07:23:26;48.18;41.22;71.77;;
11999;Laerm;40817;51.520;9.954;2023-05-10T07:25:54;46.82;41.89;66.39;;
11999;Laerm;40817;51.520;9.954;2023-05-10T07:28:23;46.61;41.33;66.44;;
11999;Laerm;40817;51.520;9.954;2023-05-10T07:30:51;45.27;40.80;63.38;;
11999;Laerm;40817;51.520;9.954;2023-05-10T07:33:19;45.62;41.22;68.13;;
11999;Laerm;40817;51.520;9.954;2023-05-10T07:35:46;45.34;40.33;64.15;;
11999;Laerm;40817;51.520;9.954;2023-05-10T07:38:14;45.35;40.89;61.37;;
11999;Laerm;40817;51.520;9.954;2023-05-10T07:40:43;48.44;40.89;67.56;;
11999;Laerm;40817;51.520;9.954;2023-05-10T07:43:11;44.95;41.14;70.07;;
11999;Laerm;40817;51.520;9.954;2023-05-10T07:45:38;45.78;40.71;65.49;;
11999;Laerm;40817;51.520;9.954;2023-05-10T07:48:06;45.70;40.80;64.62;;
11999;Laerm;40817;51.520;9.954;2023-05-10T07:50:33;44.16;40.23;61.70;;
11999;Laerm;40817;51.520;9.954;2023-05-10T07:53:01;44.17;40.53;60.95;;
11999;Laerm;40817;51.520;9.954;2023-05-10T07:55:28;43.80;40.13;63.63;;
11999;Laerm;40817;51.520;9.954;2023-05-10T07:57:57;43.91;40.23;67.99;;
11999;Laerm;40817;51.520;9.954;2023-05-10T08:00:27;43.75;40.03;63.15;;
11999;Laerm;40817;51.520;9.954;2023-05-10T08:02:55;43.53;39.70;65.86;;
11999;Laerm;40817;51.520;9.954;2023-05-10T08:05:22;43.76;39.81;60.34;;
11999;Laerm;40817;51.520;9.954;2023-05-10T08:07:50;43.31;38.81;60.05;;
11999;Laerm;40817;51.520;9.954;2023-05-10T08:10:18;54.39;41.61;75.95;;
11999;Laerm;40817;51.520;9.954;2023-05-10T08:12:45;43.99;41.14;61.06;;
11999;Laerm;40817;51.520;9.954;2023-05-10T08:15:14;43.33;39.46;60.25;;
11999;Laerm;40817;51.520;9.954;2023-05-10T08:17:41;42.93;39.08;60.33;;
11999;Laerm;40817;51.520;9.954;2023-05-10T08:20:10;42.86;39.08;65.78;;
11999;Laerm;40817;51.520;9.954;2023-05-10T08:22:39;42.70;38.67;58.80;;
11999;Laerm;40817;51.520;9.954;2023-05-10T08:25:08;43.61;38.81;63.54;;
11999;Laerm;40817;51.520;9.954;2023-05-10T08:27:35;42.16;38.67;60.31;;
11999;Laerm;40817;51.520;9.954;2023-05-10T08:30:05;42.12;38.67;51.47;;
11999;Laerm;40817;51.520;9.954;2023-05-10T08:32:34;43.22;39.21;59.45;;
11999;Laerm;40817;51.520;9.954;2023-05-10T08:35:05;45.08;39.78;57.72;;
11999;Laerm;40817;51.520;9.954;2023-05-10T08:37:32;43.43;39.92;48.88;;
11999;Laerm;40817;51.520;9.954;2023-05-10T08:40:00;43.40;39.46;58.12;;
11999;Laerm;40817;51.520;9.954;2023-05-10T08:42:30;43.94;40.53;55.23;;
11999;Laerm;40817;51.520;9.954;2023-05-10T08:45:03;44.29;40.33;56.97;;
11999;Laerm;40817;51.520;9.954;2023-05-10T08:47:34;43.15;39.58;50.19;;
11999;Laerm;40817;51.520;9.954;2023-05-10T08:50:06;43.70;39.70;50.94;;
11999;Laerm;40817;51.520;9.954;2023-05-10T08:52:38;43.32;39.46;51.91;;
11999;Laerm;40817;51.520;9.954;2023-05-10T08:55:08;43.88;40.33;51.99;;
11999;Laerm;40817;51.520;9.954;2023-05-10T08:57:36;43.74;40.53;57.07;;
11999;Laerm;40817;51.520;9.954;2023-05-10T09:00:06;43.63;40.13;54.45;;
11999;Laerm;40817;51.520;9.954;2023-05-10T09:02:37;43.32;39.46;49.97;;
11999;Laerm;40817;51.520;9.954;2023-05-10T09:05:07;44.10;40.98;69.05;;
11999;Laerm;40817;51.520;9.954;2023-05-10T09:07:36;43.53;39.81;59.24;;
11999;Laerm;40817;51.520;9.954;2023-05-10T09:10:06;43.83;38.81;51.52;;
11999;Laerm;40817;51.520;9.954;2023-05-10T09:12:34;45.21;39.81;72.05;;
11999;Laerm;40817;51.520;9.954;2023-05-10T09:15:03;44.70;40.23;67.62;;
11999;Laerm;40817;51.520;9.954;2023-05-10T09:17:31;43.72;40.33;58.77;;
11999;Laerm;40817;51.520;9.954;2023-05-10T09:20:01;43.61;39.46;51.79;;
11999;Laerm;40817;51.520;9.954;2023-05-10T09:22:30;44.53;40.33;53.60;;
11999;Laerm;40817;51.520;9.954;2023-05-10T09:25:07;46.16;41.61;58.02;;
11999;Laerm;40817;51.520;9.954;2023-05-10T09:27:35;57.64;43.58;72.21;;
11999;Laerm;40817;51.520;9.954;2023-05-10T09:30:04;55.33;43.72;64.41;;
11999;Laerm;40817;51.520;9.954;2023-05-10T09:32:41;50.37;42.65;60.49;;
11999;Laerm;40817;51.520;9.954;2023-05-10T09:35:14;58.20;43.34;73.80;;
11999;Laerm;40817;51.520;9.954;2023-05-10T09:37:44;47.84;43.09;59.19;;
11999;Laerm;40817;51.520;9.954;2023-05-10T09:40:15;51.04;41.22;75.06;;
11999;Laerm;40817;51.520;9.954;2023-05-10T09:42:52;45.02;40.71;58.09;;
11999;Laerm;40817;51.520;9.954;2023-05-10T09:45:22;51.69;40.71;66.85;;
11999;Laerm;40817;51.520;9.954;2023-05-10T09:47:50;44.04;40.62;57.37;;
11999;Laerm;40817;51.520;9.954;2023-05-10T09:50:20;44.53;40.71;52.15;;
11999;Laerm;40817;51.520;9.954;2023-05-10T09:52:51;43.30;40.13;52.32;;
11999;Laerm;40817;51.520;9.954;2023-05-10T09:55:21;43.09;39.46;45.39;;
11999;Laerm;40817;51.520;9.954;2023-05-10T09:57:58;43.75;40.43;58.10;;
11999;Laerm;40817;51.520;9.954;2023-05-10T10:00:27;45.48;40.23;54.36;;
11999;Laerm;40817;51.520;9.954;2023-05-10T10:02:57;46.39;41.96;54.81;;
11999;Laerm;40817;51.520;9.954;2023-05-10T10:05:30;43.97;40.33;67.97;;
11999;Laerm;40817;51.520;9.954;2023-05-10T10:08:00;43.53;40.53;46.84;;
11999;Laerm;40817;51.520;9.954;2023-05-10T10:10:28;45.49;40.33;56.08;;
11999;Laerm;40817;51.520;9.954;2023-05-10T10:12:56;43.29;40.08;51.46;;
11999;Laerm;40817;51.520;9.954;2023-05-10T10:15:24;43.79;40.71;57.83;;
11999;Laerm;40817;51.520;9.954;2023-05-10T10:17:53;50.42;41.38;66.76;;
11999;Laerm;40817;51.520;9.954;2023-05-10T10:20:23;43.13;39.35;50.01;;
11999;Laerm;40817;51.520;9.954;2023-05-10T10:22:54;43.05;39.46;48.67;;
11999;Laerm;40817;51.520;9.954;2023-05-10T10:25:22;48.78;40.89;68.97;;
11999;Laerm;40817;51.520;9.954;2023-05-10T10:28:10;47.18;40.43;65.69;;
11999;Laerm;40817;51.520;9.954;2023-05-10T10:30:44;43.26;40.03;48.95;;
11999;Laerm;40817;51.520;9.954;2023-05-10T10:33:44;43.09;39.23;53.14;;
11999;Laerm;40817;51.520;9.954;2023-05-10T10:36:19;43.49;40.53;52.83;;
11999;Laerm;40817;51.520;9.954;2023-05-10T10:39:00;45.20;41.22;56.53;;
11999;Laerm;40817;51.520;9.954;2023-05-10T10:41:33;43.92;40.53;55.25;;
11999;Laerm;40817;51.520;9.954;2023-05-10T10:47:07;44.00;40.23;52.54;;
11999;Laerm;40817;51.520;9.954;2023-05-10T10:49:48;44.02;40.33;54.56;;
11999;Laerm;40817;51.520;9.954;2023-05-10T10:52:26;45.85;38.37;60.35;;
11999;Laerm;40817;51.520;9.954;2023-05-10T10:55:04;43.31;40.53;46.28;;
11999;Laerm;40817;51.520;9.954;2023-05-10T10:57:43;44.75;40.13;61.22;;
11999;Laerm;40817;51.520;9.954;2023-05-10T11:00:25;44.44;40.98;56.03;;
11999;Laerm;40817;51.520;9.954;2023-05-10T11:02:57;48.26;40.13;61.60;;
11999;Laerm;40817;51.520;9.954;2023-05-10T11:05:44;45.08;40.62;61.14;;
11999;Laerm;40817;51.520;9.954;2023-05-10T11:08:27;43.56;40.53;52.02;;
11999;Laerm;40817;51.520;9.954;2023-05-10T11:11:06;46.16;40.43;59.54;;
11999;Laerm;40817;51.520;9.954;2023-05-10T11:13:39;43.49;39.08;52.16;;
11999;Laerm;40817;51.520;9.954;2023-05-10T11:16:14;43.53;40.53;53.66;;
11999;Laerm;40817;51.520;9.954;2023-05-10T11:19:03;43.43;39.21;52.94;;
11999;Laerm;40817;51.520;9.954;2023-05-10T11:21:32;43.14;38.81;54.63;;
11999;Laerm;40817;51.520;9.954;2023-05-10T11:24:01;43.21;38.81;54.62;;
11999;Laerm;40817;51.520;9.954;2023-05-10T11:26:35;42.64;39.46;47.83;;
11999;Laerm;40817;51.520;9.954;2023-05-10T11:29:03;43.16;39.08;48.63;;
11999;Laerm;40817;51.520;9.954;2023-05-10T11:31:31;43.27;38.52;64.46;;
11999;Laerm;40817;51.520;9.954;2023-05-10T11:34:00;43.51;38.81;56.35;;
11999;Laerm;40817;51.520;9.954;2023-05-10T11:36:32;41.95;37.70;47.81;;
11999;Laerm;40817;51.520;9.954;2023-05-10T11:39:01;43.96;39.21;65.33;;
11999;Laerm;40817;51.520;9.954;2023-05-10T11:41:30;43.93;39.70;63.01;;
11999;Laerm;40817;51.520;9.954;2023-05-10T11:43:59;44.94;39.58;54.88;;
11999;Laerm;40817;51.520;9.954;2023-05-10T11:46:28;43.30;39.70;58.47;;
11999;Laerm;40817;51.520;9.954;2023-05-10T11:48:59;43.60;40.71;52.28;;
11999;Laerm;40817;51.520;9.954;2023-05-10T11:51:35;42.80;39.21;50.24;;
11999;Laerm;40817;51.520;9.954;2023-05-10T11:54:07;43.24;39.81;59.53;;
11999;Laerm;40817;51.520;9.954;2023-05-10T11:56:37;43.47;39.58;54.38;;
11999;Laerm;40817;51.520;9.954;2023-05-10T11:59:06;42.75;39.21;46.50;;
11999;Laerm;40817;51.520;9.954;2023-05-10T12:01:35;42.11;36.77;55.28;;
11999;Laerm;40817;51.520;9.954;2023-05-10T12:04:03;44.10;39.92;55.03;;
11999;Laerm;40817;51.520;9.954;2023-05-10T12:06:34;43.21;38.37;55.96;;
11999;Laerm;40817;51.520;9.954;2023-05-10T12:09:08;58.84;38.05;74.61;;
11999;Laerm;40817;51.520;9.954;2023-05-10T12:11:39;42.78;39.46;53.69;;
11999;Laerm;40817;51.520;9.954;2023-05-10T12:14:09;43.64;39.58;53.07;;
11999;Laerm;40817;51.520;9.954;2023-05-10T12:16:37;42.89;40.08;62.05;;
11999;Laerm;40817;51.520;9.954;2023-05-10T12:19:06;43.22;40.03;55.41;;
11999;Laerm;40817;51.520;9.954;2023-05-10T12:21:34;43.17;39.78;53.57;;
11999;Laerm;40817;51.520;9.954;2023-05-10T12:24:04;46.92;38.67;66.50;;
11999;Laerm;40817;51.520;9.954;2023-05-10T12:26:32;44.31;38.67;62.64;;
11999;Laerm;40817;51.520;9.954;2023-05-10T12:29:18;42.02;38.52;50.18;;
11999;Laerm;40817;51.520;9.954;2023-05-10T12:31:52;43.14;39.46;54.44;;
11999;Laerm;40817;51.520;9.954;2023-05-10T12:34:30;44.19;38.67;57.50;;
11999;Laerm;40817;51.520;9.954;2023-05-10T12:36:58;42.99;39.81;49.64;;
11999;Laerm;40817;51.520;9.954;2023-05-10T12:39:26;43.28;39.08;61.54;;
11999;Laerm;40817;51.520;9.954;2023-05-10T12:42:05;44.89;37.88;60.94;;
11999;Laerm;40817;51.520;9.954;2023-05-10T12:44:34;42.37;39.08;47.34;;
11999;Laerm;40817;51.520;9.954;2023-05-10T12:47:02;42.75;38.95;53.02;;
11999;Laerm;40817;51.520;9.954;2023-05-10T12:49:30;45.75;40.80;72.04;;
11999;Laerm;40817;51.520;9.954;2023-05-10T12:51:58;42.19;37.32;47.67;;
11999;Laerm;40817;51.520;9.954;2023-05-10T12:54:26;43.58;38.37;57.83;;
11999;Laerm;40817;51.520;9.954;2023-05-10T12:56:54;42.76;37.88;53.37;;
11999;Laerm;40817;51.520;9.954;2023-05-10T12:59:22;42.17;38.67;54.44;;
11999;Laerm;40817;51.520;9.954;2023-05-10T13:01:51;43.09;38.37;54.92;;
11999;Laerm;40817;51.520;9.954;2023-05-10T13:04:19;42.36;36.98;58.18;;
11999;Laerm;40817;51.520;9.954;2023-05-10T13:06:47;54.22;38.81;76.08;;
11999;Laerm;40817;51.520;9.954;2023-05-10T13:09:14;42.51;38.05;54.33;;
11999;Laerm;40817;51.520;9.954;2023-05-10T13:11:42;42.11;37.52;57.00;;
11999;Laerm;40817;51.520;9.954;2023-05-10T13:14:10;43.36;38.37;52.38;;
11999;Laerm;40817;51.520;9.954;2023-05-10T13:16:38;45.28;39.08;57.76;;
11999;Laerm;40817;51.520;9.954;2023-05-10T13:19:07;44.25;37.70;55.11;;
11999;Laerm;40817;51.520;9.954;2023-05-10T13:21:34;43.50;34.69;51.82;;
11999;Laerm;40817;51.520;9.954;2023-05-10T13:24:02;42.68;35.94;60.53;;
11999;Laerm;40817;51.520;9.954;2023-05-10T13:26:30;44.89;38.81;59.45;;
11999;Laerm;40817;51.520;9.954;2023-05-10T13:28:58;44.76;38.21;55.99;;
11999;Laerm;40817;51.520;9.954;2023-05-10T13:31:27;44.23;38.37;57.83;;
11999;Laerm;40817;51.520;9.954;2023-05-10T13:33:54;43.80;38.21;57.05;;
11999;Laerm;40817;51.520;9.954;2023-05-10T13:36:24;44.75;38.52;60.70;;
11999;Laerm;40817;51.520;9.954;2023-05-10T13:38:51;49.94;39.34;69.47;;
11999;Laerm;40817;51.520;9.954;2023-05-10T13:41:21;43.87;36.91;69.85;;
11999;Laerm;40817;51.520;9.954;2023-05-10T13:43:49;45.06;37.32;58.57;;
11999;Laerm;40817;51.520;9.954;2023-05-10T13:46:17;46.72;38.52;79.17;;
11999;Laerm;40817;51.520;9.954;2023-05-10T13:48:45;44.92;38.05;58.21;;
11999;Laerm;40817;51.520;9.954;2023-05-10T13:51:12;44.27;39.46;57.74;;
11999;Laerm;40817;51.520;9.954;2023-05-10T13:53:43;44.42;39.92;53.31;;
11999;Laerm;40817;51.520;9.954;2023-05-10T13:56:13;43.27;38.81;58.50;;
11999;Laerm;40817;51.520;9.954;2023-05-10T13:58:41;42.94;38.32;52.43;;
11999;Laerm;40817;51.520;9.954;2023-05-10T14:01:08;42.83;38.81;54.22;;
11999;Laerm;40817;51.520;9.954;2023-05-10T14:03:36;42.92;38.21;50.36;;
11999;Laerm;40817;51.520;9.954;2023-05-10T14:06:04;42.60;38.81;51.39;;